Oconee, Georgia
Current Conditions -  °F | °C
As of 1:55 PM on Tuesday 27 Jan 2015 (Local Time) from KOKZ Reporting Station
Broken Clouds Broken Clouds  
Wind Chill: 45°   Ceiling: 6500
Heat Index: 49°   Visibility: 10mi
Dew Point: 32°   Wind: 10mph
Humidity: 51%   Direction: 330°NNW
Pressure: 29.93"   Gusts: 16mph
Location:  32.86°N, 82.95°W
Report Text: KOKZ 271855Z AUTO 33009G14KT 10SM SCT050 BKN065 10/00 A2993 RMK AO2 T00960000
Loading
Personal Weather Stations






























Interactive Weather Map New forecast layout! Learn more

10-Day Weather Forecast

Advertisements
Track Severe Weather on mobile